createdAt,value
2022-12-08T00:00:42.702Z,92.06
2022-12-08T00:03:10.776Z,91.94
2022-12-08T00:05:56.103Z,92.44
2022-12-08T00:08:41.107Z,92.08
2022-12-08T00:11:12.950Z,92.17
2022-12-08T00:13:41.046Z,91.54
2022-12-08T00:16:10.345Z,90.96
2022-12-08T00:18:38.094Z,91.34
2022-12-08T00:21:05.895Z,91.47
2022-12-08T00:23:33.590Z,91.40
2022-12-08T00:26:03.090Z,91.39
2022-12-08T00:28:30.766Z,91.05
2022-12-08T00:30:58.493Z,91.37
2022-12-08T00:33:28.418Z,91.13
2022-12-08T00:35:56.105Z,90.85
2022-12-08T00:38:23.852Z,91.72
2022-12-08T00:40:51.610Z,91.64
2022-12-08T00:43:19.293Z,91.62
2022-12-08T00:45:47.067Z,91.33
2022-12-08T00:48:14.879Z,91.16
2022-12-08T00:50:43.945Z,90.90
2022-12-08T00:53:11.678Z,91.19
2022-12-08T00:55:39.436Z,90.93
2022-12-08T00:58:07.138Z,91.53
2022-12-08T01:00:39.035Z,91.05
2022-12-08T01:03:06.944Z,91.93
2022-12-08T01:05:34.718Z,92.03
2022-12-08T01:08:06.119Z,92.24
2022-12-08T01:10:36.197Z,91.42
2022-12-08T01:13:03.987Z,90.52
2022-12-08T01:15:31.698Z,90.73
2022-12-08T01:17:59.426Z,90.06
2022-12-08T01:20:27.231Z,89.65
2022-12-08T01:22:55.003Z,90.11
2022-12-08T01:25:24.134Z,90.20
2022-12-08T01:27:52.975Z,89.44
2022-12-08T01:30:20.958Z,90.14
2022-12-08T01:32:48.796Z,89.79
2022-12-08T01:35:16.516Z,89.74
2022-12-08T01:37:44.265Z,90.20
2022-12-08T01:40:12.089Z,90.04
2022-12-08T01:42:41.167Z,90.16
2022-12-08T01:45:15.007Z,90.75
2022-12-08T01:47:44.662Z,90.91
2022-12-08T01:50:14.237Z,90.51
2022-12-08T01:52:43.376Z,90.68
2022-12-08T01:55:16.535Z,90.67
2022-12-08T01:57:49.732Z,91.05
2022-12-08T02:00:19.393Z,90.83
2022-12-08T02:02:51.287Z,91.20
2022-12-08T02:05:21.167Z,90.79
2022-12-08T02:07:49.622Z,91.20
2022-12-08T02:10:20.914Z,90.73
2022-12-08T02:12:51.435Z,90.36
2022-12-08T02:15:19.595Z,90.15
2022-12-08T02:17:57.574Z,89.46
2022-12-08T02:20:43.081Z,90.09
2022-12-08T02:23:16.796Z,89.21
2022-12-08T02:25:58.071Z,88.81
2022-12-08T02:28:38.499Z,89.42
2022-12-08T02:31:16.072Z,89.72
2022-12-08T02:34:04.448Z,90.12
2022-12-08T02:36:39.741Z,90.20
2022-12-08T02:39:12.066Z,89.56
2022-12-08T02:41:56.330Z,89.82
2022-12-08T02:44:39.356Z,90.14
2022-12-08T02:47:11.014Z,89.67
2022-12-08T02:49:41.818Z,89.95
2022-12-08T02:52:32.207Z,89.84
2022-12-08T02:55:05.417Z,90.60
2022-12-08T02:57:44.274Z,89.91
2022-12-08T03:00:15.792Z,90.65
2022-12-08T03:02:52.860Z,90.16
2022-12-08T03:05:31.133Z,90.37
2022-12-08T03:08:02.492Z,90.54
2022-12-08T03:10:33.734Z,90.56
2022-12-08T03:13:03.720Z,89.41
2022-12-08T03:15:32.823Z,89.55
2022-12-08T03:18:01.900Z,88.95
2022-12-08T03:20:32.135Z,88.78
2022-12-08T03:23:01.381Z,88.57
2022-12-08T03:25:34.105Z,89.30
2022-12-08T03:28:04.604Z,89.02
2022-12-08T03:30:37.714Z,88.96
2022-12-08T03:33:10.598Z,89.86
2022-12-08T03:35:40.692Z,89.74
2022-12-08T03:38:13.451Z,89.52
2022-12-08T03:40:50.892Z,89.44
2022-12-08T03:43:34.177Z,89.81
2022-12-08T03:46:06.999Z,89.08
2022-12-08T03:48:44.853Z,89.10
2022-12-08T03:51:17.988Z,88.71
2022-12-08T03:53:49.484Z,88.50
2022-12-08T03:56:23.457Z,88.35
2022-12-08T03:58:54.435Z,88.91
2022-12-08T04:01:27.444Z,88.94
2022-12-08T04:04:00.029Z,87.80
2022-12-08T04:06:44.022Z,88.05
2022-12-08T04:09:23.877Z,87.95
2022-12-08T04:11:54.157Z,88.33
2022-12-08T04:14:26.726Z,88.85
2022-12-08T04:16:54.809Z,89.08
2022-12-08T04:19:22.599Z,88.73
2022-12-08T04:21:54.580Z,88.84
2022-12-08T04:24:22.339Z,88.83
2022-12-08T04:26:54.929Z,88.97
2022-12-08T04:29:22.694Z,89.68
2022-12-08T04:31:53.536Z,89.83
2022-12-08T04:34:21.297Z,89.27
2022-12-08T04:36:57.935Z,89.60
2022-12-08T04:39:28.729Z,89.79
2022-12-08T04:41:56.468Z,89.55
2022-12-08T04:44:24.277Z,89.32
2022-12-08T04:46:54.969Z,89.42
2022-12-08T04:49:22.721Z,88.95
2022-12-08T04:51:52.747Z,89.14
2022-12-08T04:54:21.808Z,88.81
2022-12-08T04:56:56.357Z,89.43
2022-12-08T04:59:27.254Z,89.93
2022-12-08T05:01:55.166Z,89.46
2022-12-08T05:04:23.094Z,89.33
2022-12-08T05:06:50.838Z,88.83
2022-12-08T05:09:18.594Z,88.86
2022-12-08T05:11:49.278Z,89.21
2022-12-08T05:14:17.915Z,89.32
2022-12-08T05:16:45.951Z,88.82
2022-12-08T05:19:14.038Z,89.13
2022-12-08T05:21:41.837Z,88.82
2022-12-08T05:24:09.737Z,89.55
2022-12-08T05:26:37.612Z,89.10
2022-12-08T05:29:06.781Z,89.60
2022-12-08T05:31:34.843Z,90.23
2022-12-08T05:34:03.500Z,90.41
2022-12-08T05:36:31.500Z,91.04
2022-12-08T05:38:59.624Z,91.21
2022-12-08T05:41:27.371Z,91.43
2022-12-08T05:43:57.759Z,91.59
2022-12-08T05:46:28.016Z,91.19
2022-12-08T05:48:55.768Z,90.99
2022-12-08T05:51:28.760Z,91.80
2022-12-08T05:53:58.884Z,91.67
2022-12-08T05:56:26.642Z,90.94
2022-12-08T05:58:54.365Z,91.84
2022-12-08T06:01:23.113Z,91.43
2022-12-08T06:03:52.194Z,91.97
2022-12-08T06:06:24.563Z,92.19
2022-12-08T06:08:53.020Z,92.19
2022-12-08T06:11:21.492Z,91.99
2022-12-08T06:13:49.834Z,92.86
2022-12-08T06:16:18.246Z,92.47
2022-12-08T06:18:45.997Z,92.77
2022-12-08T06:21:18.985Z,92.15
2022-12-08T06:23:49.118Z,92.07
2022-12-08T06:26:17.211Z,92.11
2022-12-08T06:28:45.464Z,92.81
2022-12-08T06:31:15.074Z,92.36
2022-12-08T06:33:43.007Z,92.17
2022-12-08T06:36:12.616Z,92.99
2022-12-08T06:38:43.879Z,92.53
2022-12-08T06:41:12.409Z,93.32
2022-12-08T06:43:40.951Z,93.46
2022-12-08T06:46:09.535Z,93.56
2022-12-08T06:48:37.311Z,93.80
2022-12-08T06:51:09.168Z,93.60
2022-12-08T06:53:37.000Z,93.45
2022-12-08T06:56:06.957Z,93.61
2022-12-08T06:58:34.691Z,93.66
2022-12-08T07:01:05.256Z,93.29
2022-12-08T07:03:33.119Z,93.00
2022-12-08T07:06:04.128Z,92.50
2022-12-08T07:08:32.560Z,92.65
2022-12-08T07:11:00.864Z,92.10
2022-12-08T07:13:29.974Z,93.01
2022-12-08T07:15:57.763Z,92.44
2022-12-08T07:18:25.546Z,92.78
2022-12-08T07:20:53.225Z,92.14
2022-12-08T07:23:21.502Z,91.58
2022-12-08T07:25:51.889Z,91.33
2022-12-08T07:28:21.971Z,91.05
2022-12-08T07:30:51.069Z,90.24
2022-12-08T07:33:18.866Z,90.15
2022-12-08T07:35:57.339Z,89.92
2022-12-08T07:38:34.709Z,90.00
2022-12-08T07:41:05.285Z,90.09
2022-12-08T07:43:33.115Z,90.07
2022-12-08T07:46:02.231Z,89.90
2022-12-08T07:48:33.818Z,89.30
2022-12-08T07:51:04.658Z,89.04
2022-12-08T07:53:35.510Z,88.52
2022-12-08T07:56:06.549Z,88.46
2022-12-08T07:58:34.354Z,88.00
2022-12-08T08:01:08.356Z,88.08
2022-12-08T08:03:50.623Z,87.25
2022-12-08T08:06:18.480Z,86.68
2022-12-08T08:08:50.150Z,86.51
2022-12-08T08:11:21.868Z,86.63
2022-12-08T08:13:49.843Z,85.86
2022-12-08T08:16:19.635Z,84.82
2022-12-08T08:18:48.122Z,83.61
2022-12-08T08:24:08.719Z,79.45
2022-12-08T08:26:36.991Z,77.77
2022-12-08T08:29:04.741Z,76.49
2022-12-08T08:31:33.935Z,75.55
2022-12-08T08:34:07.184Z,75.15
2022-12-08T08:36:45.263Z,75.57
2022-12-08T08:39:17.795Z,77.01
2022-12-08T08:41:47.536Z,77.30
2022-12-08T08:44:16.015Z,77.78
2022-12-08T08:46:50.284Z,78.39
2022-12-08T08:49:24.307Z,79.03
2022-12-08T08:51:56.185Z,79.13
2022-12-08T08:54:29.955Z,78.68
2022-12-08T08:57:01.599Z,78.94
2022-12-08T08:59:35.211Z,78.80
2022-12-08T09:02:05.591Z,78.73
2022-12-08T09:04:38.081Z,78.35
2022-12-08T09:07:08.293Z,78.41
2022-12-08T09:09:36.073Z,78.72
2022-12-08T09:12:06.353Z,79.58
2022-12-08T09:14:36.860Z,78.10
2022-12-08T09:17:12.471Z,79.12
2022-12-08T09:19:42.650Z,79.47
2022-12-08T09:22:10.408Z,79.82
2022-12-08T09:24:41.874Z,79.90
2022-12-08T09:27:11.490Z,79.04
2022-12-08T09:29:40.779Z,79.33
2022-12-08T09:32:12.835Z,79.71
2022-12-08T09:34:40.596Z,78.31
2022-12-08T09:37:18.845Z,77.24
2022-12-08T09:39:47.648Z,75.28
2022-12-08T09:42:30.423Z,73.32
2022-12-08T09:45:03.665Z,71.54
2022-12-08T09:47:36.241Z,70.80
2022-12-08T09:50:08.481Z,69.89
2022-12-08T09:52:39.334Z,67.86
2022-12-08T09:55:12.705Z,66.43
2022-12-08T09:57:40.502Z,66.16
2022-12-08T10:00:08.994Z,67.57
2022-12-08T10:02:38.105Z,68.05
2022-12-08T10:05:06.296Z,70.03
2022-12-08T10:07:39.108Z,70.74
2022-12-08T10:10:13.510Z,70.71
2022-12-08T10:12:43.426Z,71.71
2022-12-08T10:15:20.461Z,71.89
2022-12-08T10:17:51.223Z,73.06
2022-12-08T10:20:20.116Z,72.85
2022-12-08T10:22:51.234Z,72.91
2022-12-08T10:25:20.385Z,74.53
2022-12-08T10:27:50.340Z,74.72
2022-12-08T10:30:19.880Z,76.52
2022-12-08T10:32:50.275Z,77.41
2022-12-08T10:35:18.720Z,77.70
2022-12-08T10:37:55.953Z,78.36
2022-12-08T10:40:23.717Z,78.85
2022-12-08T10:42:52.550Z,78.86
2022-12-08T10:45:23.544Z,79.88
2022-12-08T10:47:59.010Z,80.59
2022-12-08T10:50:29.950Z,81.59
2022-12-08T10:52:58.566Z,81.46
2022-12-08T10:55:26.687Z,82.08
2022-12-08T10:57:54.504Z,82.07
2022-12-08T11:00:23.225Z,82.13
2022-12-08T11:02:55.328Z,82.33
2022-12-08T11:05:27.197Z,82.78
2022-12-08T11:07:56.086Z,82.89
2022-12-08T11:10:30.087Z,82.64
2022-12-08T11:12:59.889Z,83.07
2022-12-08T11:15:32.872Z,83.63
2022-12-08T11:18:03.104Z,83.90
2022-12-08T11:20:38.585Z,84.00
2022-12-08T11:23:18.783Z,84.42
2022-12-08T11:25:46.515Z,84.33
2022-12-08T11:28:14.274Z,84.65
2022-12-08T11:30:44.865Z,84.58
2022-12-08T11:33:15.655Z,84.79
2022-12-08T11:35:46.009Z,85.50
2022-12-08T11:38:21.736Z,85.29
2022-12-08T11:40:51.882Z,85.33
2022-12-08T11:43:22.270Z,85.47
2022-12-08T11:45:51.066Z,85.91
2022-12-08T11:48:20.250Z,85.97
2022-12-08T11:50:51.806Z,86.27
2022-12-08T11:53:24.652Z,86.57
2022-12-08T11:55:56.172Z,86.89
2022-12-08T11:58:27.947Z,87.37
2022-12-08T12:00:55.756Z,87.57
2022-12-08T12:03:29.668Z,87.42
2022-12-08T12:06:37.723Z,87.63
2022-12-08T12:09:03.060Z,87.78
2022-12-08T12:11:52.300Z,87.68
2022-12-08T12:14:29.964Z,88.17
2022-12-08T12:17:04.964Z,88.32
2022-12-08T12:19:35.427Z,89.12
2022-12-08T12:22:08.563Z,89.18
2022-12-08T12:24:38.787Z,89.94
2022-12-08T12:27:08.894Z,89.64
2022-12-08T12:29:38.573Z,89.96
2022-12-08T12:32:07.866Z,90.10
2022-12-08T12:34:37.502Z,90.55
2022-12-08T12:37:08.920Z,90.89
2022-12-08T12:39:47.579Z,91.11
2022-12-08T12:42:30.198Z,91.18
2022-12-08T12:45:12.278Z,91.18
2022-12-08T12:47:54.081Z,91.15
2022-12-08T12:50:43.348Z,91.59
2022-12-08T12:53:25.964Z,91.41
2022-12-08T12:55:56.263Z,91.60
2022-12-08T12:58:35.173Z,92.05
2022-12-08T13:01:21.600Z,92.00
2022-12-08T13:03:50.805Z,92.52
2022-12-08T13:06:23.827Z,92.55
2022-12-08T13:08:53.073Z,92.61
2022-12-08T13:11:22.608Z,92.78
2022-12-08T13:13:57.204Z,93.03
2022-12-08T13:16:26.071Z,93.48
2022-12-08T13:18:57.595Z,93.50
2022-12-08T13:21:32.291Z,93.51
2022-12-08T13:24:17.337Z,93.57
2022-12-08T13:26:47.109Z,93.78
2022-12-08T13:29:19.099Z,94.24
2022-12-08T13:31:50.948Z,94.19
2022-12-08T13:34:37.365Z,94.33
2022-12-08T13:37:13.575Z,94.62
2022-12-08T13:39:44.419Z,94.79
2022-12-08T13:42:19.866Z,95.16
2022-12-08T13:45:24.225Z,95.33
2022-12-08T13:47:59.631Z,95.50
2022-12-08T13:52:37.000Z,95.97
2022-12-08T13:59:09.192Z,96.84
2022-12-08T14:01:43.220Z,97.36
2022-12-08T14:04:47.513Z,97.28
2022-12-08T14:07:04.075Z,97.69
2022-12-08T14:09:34.697Z,97.74
2022-12-08T14:12:04.472Z,97.66
2022-12-08T14:15:04.857Z,98.06
2022-12-08T14:17:23.317Z,97.78
2022-12-08T14:19:55.152Z,97.99
2022-12-08T14:22:23.184Z,98.08
2022-12-08T14:24:51.983Z,98.49
2022-12-08T14:27:20.552Z,98.63
2022-12-08T14:29:51.101Z,98.51
2022-12-08T14:32:24.497Z,98.89
2022-12-08T14:34:53.870Z,98.77
2022-12-08T14:37:22.093Z,99.01
2022-12-08T14:39:50.306Z,98.82
2022-12-08T14:42:22.398Z,98.99
2022-12-08T14:44:56.673Z,99.08
2022-12-08T14:47:29.451Z,99.05
2022-12-08T14:49:57.215Z,99.51
2022-12-08T14:52:25.691Z,99.16
2022-12-08T14:54:54.193Z,99.31
2022-12-08T14:57:22.496Z,99.54
2022-12-08T14:59:51.750Z,99.87
2022-12-08T15:02:26.480Z,99.64
2022-12-08T15:04:59.132Z,99.58
2022-12-08T15:07:28.768Z,99.78
2022-12-08T15:10:10.929Z,100.00
2022-12-08T15:12:38.725Z,100.00
2022-12-08T15:15:17.580Z,100.00
2022-12-08T15:17:46.166Z,100.00
2022-12-08T15:20:33.225Z,100.00
2022-12-08T15:23:03.251Z,100.00
2022-12-08T15:25:31.198Z,100.00
2022-12-08T15:27:59.028Z,100.00
2022-12-08T15:30:28.667Z,100.00
2022-12-08T15:32:56.525Z,100.00
2022-12-08T15:35:24.348Z,100.00
2022-12-08T15:37:54.357Z,100.00
2022-12-08T15:40:22.950Z,100.00
2022-12-08T15:42:50.698Z,100.00
2022-12-08T15:45:18.572Z,100.00
2022-12-08T15:47:47.895Z,100.00
2022-12-08T15:50:16.427Z,100.00
2022-12-08T15:52:44.384Z,100.00
2022-12-08T15:55:15.795Z,100.00
2022-12-08T15:58:44.644Z,100.00
2022-12-08T16:07:12.907Z,100.00
2022-12-08T16:09:13.072Z,100.00
2022-12-08T16:12:07.762Z,100.00
2022-12-08T16:17:25.117Z,100.00
2022-12-08T16:19:54.573Z,100.00
2022-12-08T16:25:21.843Z,100.00
2022-12-08T16:28:29.281Z,100.00
2022-12-08T16:30:44.920Z,100.00
2022-12-08T16:33:28.570Z,100.00
2022-12-08T16:36:08.555Z,100.00
2022-12-08T16:38:39.107Z,100.00
2022-12-08T16:41:24.610Z,100.00
2022-12-08T16:43:53.053Z,100.00
2022-12-08T16:46:23.833Z,100.00
2022-12-08T16:48:51.649Z,100.00
2022-12-08T16:51:26.557Z,100.00
2022-12-08T16:53:54.968Z,100.00
2022-12-08T16:56:28.782Z,100.00
2022-12-08T16:58:59.905Z,100.00
2022-12-08T17:01:27.743Z,100.00
2022-12-08T17:04:29.054Z,100.00
2022-12-08T17:06:44.739Z,100.00
2022-12-08T17:09:12.413Z,100.00
2022-12-08T17:11:43.378Z,100.00
2022-12-08T17:14:11.535Z,100.00
2022-12-08T17:16:39.452Z,100.00
2022-12-08T17:19:07.332Z,100.00
2022-12-08T17:21:35.089Z,100.00
2022-12-08T17:24:04.227Z,100.00
2022-12-08T17:26:32.041Z,100.00
2022-12-08T17:29:01.194Z,100.00
2022-12-08T17:31:30.546Z,100.00
2022-12-08T17:33:59.109Z,100.00
2022-12-08T17:36:26.849Z,100.00
2022-12-08T17:38:54.659Z,100.00
2022-12-08T17:41:23.794Z,100.00
2022-12-08T17:43:51.497Z,100.00
2022-12-08T17:46:19.753Z,100.00
2022-12-08T17:48:47.606Z,100.00
2022-12-08T17:51:15.542Z,100.00
2022-12-08T17:53:43.446Z,100.00
2022-12-08T17:56:15.364Z,100.00
2022-12-08T17:58:51.303Z,100.00
2022-12-08T18:01:22.535Z,100.00
2022-12-08T18:03:50.423Z,100.00
2022-12-08T18:06:21.219Z,100.00
2022-12-08T18:08:49.363Z,100.00
2022-12-08T18:11:17.730Z,100.00
2022-12-08T18:13:47.367Z,100.00
2022-12-08T18:16:15.182Z,100.00
2022-12-08T18:18:43.364Z,100.00
2022-12-08T18:21:11.128Z,100.00
2022-12-08T18:23:39.226Z,100.00
2022-12-08T18:26:07.149Z,100.00
2022-12-08T18:28:35.243Z,100.00
2022-12-08T18:31:08.486Z,100.00
2022-12-08T18:33:36.373Z,100.00
2022-12-08T18:36:07.669Z,100.00
2022-12-08T18:38:35.378Z,100.00
2022-12-08T18:41:05.302Z,100.00
2022-12-08T18:43:33.357Z,100.00
2022-12-08T18:46:07.695Z,100.00
2022-12-08T18:48:35.756Z,100.00
2022-12-08T18:51:03.490Z,100.00
2022-12-08T18:53:31.454Z,100.00
2022-12-08T18:55:59.174Z,100.00
2022-12-08T18:58:26.908Z,100.00
2022-12-08T19:00:54.653Z,100.00
2022-12-08T19:03:23.851Z,100.00
2022-12-08T19:05:51.635Z,100.00
2022-12-08T19:08:19.447Z,100.00
2022-12-08T19:10:47.246Z,100.00
2022-12-08T19:13:14.997Z,100.00
2022-12-08T19:15:42.760Z,100.00
2022-12-08T19:18:10.829Z,100.00
2022-12-08T19:20:39.944Z,100.00
2022-12-08T19:23:07.734Z,100.00
2022-12-08T19:25:35.457Z,100.00
2022-12-08T19:28:03.203Z,100.00
2022-12-08T19:30:32.292Z,100.00
2022-12-08T19:33:00.026Z,100.00
2022-12-08T19:35:27.766Z,100.00
2022-12-08T19:37:56.947Z,100.00
2022-12-08T19:40:42.426Z,100.00
2022-12-08T19:43:32.353Z,100.00
2022-12-08T19:46:00.195Z,100.00
2022-12-08T19:48:27.985Z,100.00
2022-12-08T19:50:55.707Z,100.00
2022-12-08T19:53:25.307Z,100.00
2022-12-08T19:55:53.274Z,100.00
2022-12-08T19:58:21.049Z,100.00
2022-12-08T20:00:48.879Z,100.00
2022-12-08T20:03:17.041Z,100.00
2022-12-08T20:05:45.523Z,100.00
2022-12-08T20:08:16.718Z,100.00
2022-12-08T20:10:46.754Z,100.00
2022-12-08T20:13:31.961Z,100.00
2022-12-08T20:15:59.856Z,100.00
2022-12-08T20:18:28.694Z,100.00
2022-12-08T20:20:57.020Z,100.00
2022-12-08T20:23:24.831Z,100.00
2022-12-08T20:25:54.047Z,100.00
2022-12-08T20:28:22.534Z,100.00
2022-12-08T20:30:50.436Z,100.00
2022-12-08T20:33:19.051Z,100.00
2022-12-08T20:35:47.302Z,100.00
2022-12-08T20:38:15.077Z,100.00
2022-12-08T20:40:43.847Z,100.00
2022-12-08T20:43:13.021Z,100.00
2022-12-08T20:45:40.767Z,100.00
2022-12-08T20:48:08.543Z,100.00
2022-12-08T20:50:36.468Z,100.00
2022-12-08T20:53:04.486Z,100.00
2022-12-08T20:55:32.360Z,100.00
2022-12-08T20:58:00.237Z,100.00
2022-12-08T21:00:29.406Z,100.00
2022-12-08T21:02:57.605Z,100.00
2022-12-08T21:05:25.716Z,100.00
2022-12-08T21:07:53.801Z,100.00
2022-12-08T21:10:21.840Z,100.00
2022-12-08T21:12:49.750Z,100.00
2022-12-08T21:15:17.700Z,100.00
2022-12-08T21:17:47.046Z,100.00
2022-12-08T21:20:15.204Z,100.00
2022-12-08T21:22:43.024Z,100.00
2022-12-08T21:25:10.886Z,100.00
2022-12-08T21:27:39.096Z,100.00
2022-12-08T21:30:08.197Z,100.00
2022-12-08T21:32:36.275Z,100.00
2022-12-08T21:35:05.975Z,100.00
2022-12-08T21:38:10.057Z,100.00
2022-12-08T21:40:38.386Z,100.00
2022-12-08T21:43:06.398Z,100.00
2022-12-08T21:45:35.320Z,100.00
2022-12-08T21:48:11.031Z,100.00
2022-12-08T21:50:39.698Z,100.00
2022-12-08T21:53:09.090Z,100.00
2022-12-08T21:55:37.220Z,100.00
2022-12-08T21:58:05.629Z,100.00
2022-12-08T22:00:33.833Z,100.00
2022-12-08T22:03:02.106Z,100.00
2022-12-08T22:05:30.250Z,100.00
2022-12-08T22:07:58.526Z,100.00
2022-12-08T22:10:28.039Z,100.00
2022-12-08T22:12:56.016Z,100.00
2022-12-08T22:15:24.054Z,100.00
2022-12-08T22:17:52.302Z,100.00
2022-12-08T22:20:20.698Z,100.00
2022-12-08T22:22:49.197Z,100.00
2022-12-08T22:25:17.319Z,100.00
2022-12-08T22:27:47.951Z,100.00
2022-12-08T22:30:16.303Z,100.00
2022-12-08T22:32:44.478Z,100.00
2022-12-08T22:35:12.713Z,100.00
2022-12-08T22:37:40.856Z,100.00
2022-12-08T22:40:10.071Z,100.00
2022-12-08T22:42:38.306Z,100.00
2022-12-08T22:45:09.349Z,100.00
2022-12-08T22:47:37.392Z,100.00
2022-12-08T22:50:07.103Z,100.00
2022-12-08T22:52:35.651Z,100.00
2022-12-08T22:55:03.687Z,100.00
2022-12-08T22:57:31.893Z,100.00
2022-12-08T22:59:59.855Z,100.00
2022-12-08T23:02:29.328Z,100.00
2022-12-08T23:04:57.936Z,100.00
2022-12-08T23:07:26.037Z,100.00
2022-12-08T23:09:54.127Z,100.00
2022-12-08T23:12:22.411Z,100.00
2022-12-08T23:14:50.508Z,100.00
2022-12-08T23:17:18.847Z,100.00
2022-12-08T23:19:48.245Z,100.00
2022-12-08T23:22:16.388Z,100.00
2022-12-08T23:24:44.627Z,100.00
2022-12-08T23:27:12.682Z,100.00
2022-12-08T23:29:40.809Z,100.00
2022-12-08T23:32:09.032Z,100.00
2022-12-08T23:34:37.049Z,100.00
2022-12-08T23:37:06.407Z,100.00
2022-12-08T23:39:34.775Z,100.00
2022-12-08T23:42:02.820Z,100.00
2022-12-08T23:44:31.481Z,100.00
2022-12-08T23:46:59.563Z,100.00
2022-12-08T23:49:28.073Z,100.00
2022-12-08T23:51:56.226Z,100.00
2022-12-08T23:54:25.799Z,100.00
2022-12-08T23:56:54.039Z,100.00
2022-12-08T23:59:22.228Z,100.00
